createdAt,value
2023-05-09T00:01:06.586Z,2.03
2023-05-09T00:03:33.360Z,2.04
2023-05-09T00:06:00.062Z,2.04
2023-05-09T00:08:26.829Z,2.03
2023-05-09T00:10:53.823Z,2.00
2023-05-09T00:13:20.974Z,1.95
2023-05-09T00:15:48.374Z,1.89
2023-05-09T00:18:15.483Z,1.83
2023-05-09T00:20:42.619Z,1.77
2023-05-09T00:23:09.523Z,1.80
2023-05-09T00:25:36.520Z,1.77
2023-05-09T00:28:03.349Z,1.87
2023-05-09T00:30:30.910Z,1.91
2023-05-09T00:32:57.889Z,1.93
2023-05-09T00:35:24.745Z,1.92
2023-05-09T00:37:51.514Z,1.92
2023-05-09T00:40:18.371Z,1.88
2023-05-09T00:42:45.706Z,1.85
2023-05-09T00:45:12.760Z,1.82
2023-05-09T00:47:39.962Z,1.80
2023-05-09T00:50:07.494Z,1.82
2023-05-09T00:52:34.910Z,1.85
2023-05-09T00:55:03.010Z,1.85
2023-05-09T00:57:29.754Z,1.84
2023-05-09T00:59:56.638Z,1.83
2023-05-09T01:02:23.987Z,1.80
2023-05-09T01:04:51.285Z,1.77
2023-05-09T01:07:36.843Z,1.77
2023-05-09T01:10:21.541Z,1.75
2023-05-09T01:13:13.434Z,1.72
2023-05-09T01:16:11.947Z,1.70
2023-05-09T01:18:45.421Z,1.66
2023-05-09T01:21:17.000Z,1.61
2023-05-09T01:23:44.313Z,1.55
2023-05-09T01:26:19.845Z,1.46
2023-05-09T01:29:17.442Z,1.38
2023-05-09T01:31:46.768Z,1.33
2023-05-09T01:34:16.879Z,1.32
2023-05-09T01:36:44.334Z,1.32
2023-05-09T01:39:13.450Z,1.32
2023-05-09T01:41:40.637Z,1.29
2023-05-09T01:44:11.702Z,1.28
2023-05-09T01:46:39.937Z,1.24
2023-05-09T01:49:09.504Z,1.19
2023-05-09T01:51:39.897Z,1.15
2023-05-09T01:54:08.207Z,1.11
2023-05-09T01:56:38.259Z,1.10
2023-05-09T01:59:07.660Z,1.11
2023-05-09T02:01:35.917Z,1.13
2023-05-09T02:04:04.609Z,1.15
2023-05-09T02:06:32.643Z,1.16
2023-05-09T02:08:59.562Z,1.16
2023-05-09T02:11:26.399Z,1.14
2023-05-09T02:13:53.243Z,1.10
2023-05-09T02:16:21.198Z,1.05
2023-05-09T02:18:48.727Z,1.04
2023-05-09T02:21:15.664Z,1.03
2023-05-09T02:23:42.629Z,1.00
2023-05-09T02:26:09.397Z,1.00
2023-05-09T02:28:37.883Z,1.00
2023-05-09T02:31:07.536Z,0.97
2023-05-09T02:33:37.482Z,0.95
2023-05-09T02:36:06.128Z,0.92
2023-05-09T02:38:33.877Z,0.89
2023-05-09T02:41:02.482Z,0.88
2023-05-09T02:43:29.231Z,0.89
2023-05-09T02:45:56.033Z,0.93
2023-05-09T02:48:23.410Z,0.97
2023-05-09T02:50:50.214Z,0.99
2023-05-09T02:53:17.009Z,1.02
2023-05-09T02:55:43.934Z,1.05
2023-05-09T02:58:14.842Z,1.06
2023-05-09T03:00:43.249Z,1.06
2023-05-09T03:03:10.999Z,1.05
2023-05-09T03:05:37.915Z,1.05
2023-05-09T03:08:05.195Z,1.10
2023-05-09T03:10:32.778Z,1.15
2023-05-09T03:12:59.596Z,1.17
2023-05-09T03:15:27.437Z,1.16
2023-05-09T03:17:54.657Z,1.13
2023-05-09T03:20:21.934Z,1.10
2023-05-09T03:22:49.613Z,1.09
2023-05-09T03:25:17.057Z,1.08
2023-05-09T03:27:44.990Z,1.08
2023-05-09T03:30:14.585Z,1.10
2023-05-09T03:32:42.463Z,1.15
2023-05-09T03:35:09.315Z,1.20
2023-05-09T03:37:36.181Z,1.25
2023-05-09T03:40:04.037Z,1.33
2023-05-09T03:42:32.296Z,1.40
2023-05-09T03:45:00.591Z,1.45
2023-05-09T03:47:28.913Z,1.52
2023-05-09T03:49:56.729Z,1.59
2023-05-09T03:52:24.108Z,1.68
2023-05-09T03:54:51.033Z,1.78
2023-05-09T03:57:17.894Z,1.90
2023-05-09T03:59:45.109Z,2.03
2023-05-09T04:02:14.644Z,2.14
2023-05-09T04:04:41.591Z,2.23
2023-05-09T04:07:09.198Z,2.33
2023-05-09T04:09:36.464Z,2.44
2023-05-09T04:12:03.384Z,2.59
2023-05-09T04:14:30.797Z,2.71
2023-05-09T04:16:57.842Z,2.84
2023-05-09T04:19:25.852Z,2.94
2023-05-09T04:21:53.616Z,3.05
2023-05-09T04:24:20.759Z,3.15
2023-05-09T04:26:48.522Z,3.27
2023-05-09T04:29:18.284Z,3.41
2023-05-09T04:31:49.507Z,3.57
2023-05-09T04:34:16.663Z,3.77
2023-05-09T04:36:44.981Z,3.98
2023-05-09T04:39:12.965Z,4.23
2023-05-09T04:41:44.615Z,4.57
2023-05-09T04:44:13.974Z,5.02
2023-05-09T04:46:40.930Z,5.54
2023-05-09T04:49:07.752Z,6.08
2023-05-09T04:51:34.589Z,6.58
2023-05-09T04:54:01.502Z,7.01
2023-05-09T04:56:31.193Z,7.49
2023-05-09T04:59:15.935Z,7.98
2023-05-09T05:01:43.580Z,8.56
2023-05-09T05:04:10.787Z,9.11
2023-05-09T05:06:37.889Z,9.49
2023-05-09T05:09:05.167Z,9.75
2023-05-09T05:11:31.950Z,9.90
2023-05-09T05:13:59.072Z,10.06
2023-05-09T05:16:26.708Z,10.18
2023-05-09T05:18:53.515Z,10.31
2023-05-09T05:21:20.502Z,10.35
2023-05-09T05:23:47.375Z,10.40
2023-05-09T05:26:14.309Z,10.45
2023-05-09T05:28:41.355Z,10.51
2023-05-09T05:31:08.095Z,10.56
2023-05-09T05:33:34.912Z,10.70
2023-05-09T05:36:02.212Z,10.76
2023-05-09T05:38:29.316Z,10.87
2023-05-09T05:40:56.668Z,11.03
2023-05-09T05:43:23.875Z,11.29
2023-05-09T05:45:51.211Z,11.65
2023-05-09T05:48:19.618Z,12.08
2023-05-09T05:50:46.755Z,12.53
2023-05-09T05:53:14.655Z,13.03
2023-05-09T05:55:41.903Z,13.58
2023-05-09T05:58:08.703Z,14.03
2023-05-09T06:00:36.299Z,14.41
2023-05-09T06:03:03.715Z,14.73
2023-05-09T06:05:42.625Z,15.10
2023-05-09T06:08:09.499Z,15.40
2023-05-09T06:10:36.342Z,15.69
2023-05-09T06:13:03.126Z,16.03
2023-05-09T06:15:30.177Z,16.21
2023-05-09T06:17:57.147Z,16.36
2023-05-09T06:20:23.916Z,16.38
2023-05-09T06:22:50.867Z,16.44
2023-05-09T06:25:19.086Z,16.62
2023-05-09T06:27:45.960Z,16.85
2023-05-09T06:30:24.742Z,17.17
2023-05-09T06:32:52.323Z,17.66
2023-05-09T06:35:19.197Z,18.03
2023-05-09T06:37:48.374Z,18.33
2023-05-09T06:40:15.900Z,18.65
2023-05-09T06:42:42.673Z,19.01
2023-05-09T06:45:09.865Z,19.25
2023-05-09T06:47:36.683Z,19.36
2023-05-09T06:50:03.831Z,19.51
2023-05-09T06:52:30.569Z,19.67
2023-05-09T06:54:57.388Z,19.66
2023-05-09T06:57:24.279Z,19.69
2023-05-09T06:59:52.087Z,19.86
2023-05-09T07:02:18.856Z,19.94
2023-05-09T07:04:48.192Z,19.96
2023-05-09T07:07:15.456Z,19.82
2023-05-09T07:09:42.483Z,19.81
2023-05-09T07:12:10.041Z,19.77
2023-05-09T07:14:36.885Z,19.58
2023-05-09T07:17:18.747Z,19.56
2023-05-09T07:19:52.044Z,19.45
2023-05-09T07:22:19.224Z,19.41
2023-05-09T07:24:46.597Z,19.39
2023-05-09T07:27:13.749Z,19.31
2023-05-09T07:29:40.623Z,19.13
2023-05-09T07:32:07.498Z,19.13
2023-05-09T07:34:34.621Z,19.20
2023-05-09T07:37:01.521Z,19.36
2023-05-09T07:39:28.270Z,19.48
2023-05-09T07:41:55.240Z,19.53
2023-05-09T07:44:22.782Z,19.72
2023-05-09T07:46:49.850Z,19.88
2023-05-09T07:49:16.694Z,19.84
2023-05-09T07:51:43.528Z,19.82
2023-05-09T07:54:10.392Z,19.97
2023-05-09T07:56:37.301Z,20.07
2023-05-09T07:59:05.563Z,20.15
2023-05-09T08:01:32.449Z,20.25
2023-05-09T08:03:59.438Z,20.32
2023-05-09T08:06:26.636Z,20.50
2023-05-09T08:08:53.451Z,20.68
2023-05-09T08:11:20.261Z,20.99
2023-05-09T08:13:48.308Z,21.02
2023-05-09T08:16:17.440Z,20.94
2023-05-09T08:18:44.752Z,20.88
2023-05-09T08:21:11.537Z,20.89
2023-05-09T08:23:38.955Z,21.06
2023-05-09T08:26:05.963Z,21.00
2023-05-09T08:28:32.783Z,21.17
2023-05-09T08:30:59.760Z,21.35
2023-05-09T08:33:26.644Z,21.49
2023-05-09T08:35:53.963Z,21.58
2023-05-09T08:38:24.499Z,21.69
2023-05-09T08:40:51.325Z,21.85
2023-05-09T08:43:20.310Z,21.95
2023-05-09T08:45:52.131Z,22.11
2023-05-09T08:48:19.631Z,22.14
2023-05-09T08:50:47.314Z,22.15
2023-05-09T08:53:14.909Z,22.11
2023-05-09T08:55:41.847Z,22.12
2023-05-09T08:58:09.779Z,22.23
2023-05-09T09:00:38.799Z,22.25
2023-05-09T09:03:06.917Z,22.09
2023-05-09T09:05:41.883Z,22.15
2023-05-09T09:08:10.992Z,22.16
2023-05-09T09:10:47.706Z,22.16
2023-05-09T09:13:16.894Z,22.03
2023-05-09T09:15:46.450Z,21.94
2023-05-09T09:18:20.954Z,21.77
2023-05-09T09:20:52.205Z,21.66
2023-05-09T09:23:21.329Z,21.57
2023-05-09T09:25:48.891Z,21.52
2023-05-09T09:28:15.790Z,21.54
2023-05-09T09:30:46.043Z,21.58
2023-05-09T09:33:22.668Z,21.78
2023-05-09T09:35:51.118Z,21.92
2023-05-09T09:38:19.723Z,21.68
2023-05-09T09:40:58.596Z,21.48
2023-05-09T09:43:30.494Z,21.22
2023-05-09T09:46:01.196Z,21.02
2023-05-09T09:48:33.793Z,20.83
2023-05-09T09:51:11.988Z,20.53
2023-05-09T09:53:39.703Z,20.20
2023-05-09T09:56:07.039Z,20.03
2023-05-09T09:58:34.270Z,19.87
2023-05-09T10:01:06.417Z,19.64
2023-05-09T10:03:38.297Z,19.44
2023-05-09T10:06:05.800Z,19.22
2023-05-09T10:08:32.797Z,19.15
2023-05-09T10:10:59.997Z,19.16
2023-05-09T10:13:27.492Z,19.12
2023-05-09T10:15:55.893Z,19.07
2023-05-09T10:18:28.875Z,18.94
2023-05-09T10:21:01.131Z,18.99
2023-05-09T10:23:30.917Z,18.99
2023-05-09T10:26:05.095Z,18.97
2023-05-09T10:28:35.258Z,19.06
2023-05-09T10:31:33.107Z,19.01
2023-05-09T10:34:05.062Z,18.99
2023-05-09T10:36:32.705Z,18.98
2023-05-09T10:39:00.164Z,18.98
2023-05-09T10:41:27.069Z,18.96
2023-05-09T10:43:57.313Z,18.93
2023-05-09T10:46:25.226Z,18.69
2023-05-09T10:48:52.631Z,18.51
2023-05-09T10:51:19.698Z,18.49
2023-05-09T10:53:48.753Z,18.48
2023-05-09T10:56:25.169Z,18.42
2023-05-09T10:58:51.926Z,18.42
2023-05-09T11:01:37.226Z,18.42
2023-05-09T11:04:14.744Z,18.54
2023-05-09T11:06:43.981Z,18.54
2023-05-09T11:09:32.922Z,18.57
2023-05-09T11:12:02.343Z,18.55
2023-05-09T11:14:31.117Z,18.49
2023-05-09T11:16:59.804Z,18.43
2023-05-09T11:19:45.648Z,18.40
2023-05-09T11:22:15.778Z,18.58
2023-05-09T11:24:51.850Z,18.91
2023-05-09T11:27:28.415Z,19.51
2023-05-09T11:29:58.099Z,19.90
2023-05-09T11:32:31.852Z,20.27
2023-05-09T11:35:10.004Z,20.91
2023-05-09T11:37:52.596Z,21.61
2023-05-09T11:40:24.315Z,22.29
2023-05-09T11:42:57.758Z,22.58
2023-05-09T11:45:29.974Z,22.67
2023-05-09T11:47:57.693Z,22.46
2023-05-09T11:50:25.231Z,22.64
2023-05-09T11:52:54.167Z,22.91
2023-05-09T11:55:23.031Z,22.95
2023-05-09T11:57:52.419Z,22.72
2023-05-09T12:00:22.025Z,22.55
2023-05-09T12:02:51.115Z,22.57
2023-05-09T12:05:20.863Z,22.27
2023-05-09T12:07:48.035Z,21.73
2023-05-09T12:10:21.233Z,21.26
2023-05-09T12:12:50.190Z,21.13
2023-05-09T12:15:19.701Z,21.65
2023-05-09T12:17:50.482Z,22.14
2023-05-09T12:20:18.906Z,22.63
2023-05-09T12:22:53.756Z,23.11
2023-05-09T12:25:20.593Z,23.40
2023-05-09T12:27:47.476Z,23.78
2023-05-09T12:30:16.280Z,24.12
2023-05-09T12:32:43.932Z,24.37
2023-05-09T12:35:11.500Z,24.68
2023-05-09T12:37:39.026Z,24.98
2023-05-09T12:40:11.397Z,25.25
2023-05-09T12:42:39.092Z,25.42
2023-05-09T12:45:08.912Z,25.27
2023-05-09T12:47:37.330Z,25.22
2023-05-09T12:50:06.497Z,25.23
2023-05-09T12:52:36.777Z,25.36
2023-05-09T12:55:09.096Z,25.48
2023-05-09T12:57:36.140Z,25.69
2023-05-09T13:00:07.653Z,25.75
2023-05-09T13:02:37.056Z,25.82
2023-05-09T13:05:12.195Z,25.86
2023-05-09T13:07:41.117Z,25.64
2023-05-09T13:10:14.664Z,24.94
2023-05-09T13:12:45.401Z,24.34
2023-05-09T13:15:12.722Z,24.32
2023-05-09T13:17:39.846Z,23.86
2023-05-09T13:20:07.499Z,23.08
2023-05-09T13:22:35.809Z,22.39
2023-05-09T13:25:03.412Z,21.87
2023-05-09T13:27:30.581Z,21.83
2023-05-09T13:29:57.634Z,22.31
2023-05-09T13:32:25.072Z,22.94
2023-05-09T13:34:52.901Z,23.53
2023-05-09T13:37:19.873Z,23.91
2023-05-09T13:39:46.703Z,24.12
2023-05-09T13:42:13.596Z,24.29
2023-05-09T13:44:40.402Z,24.48
2023-05-09T13:47:07.965Z,24.84
2023-05-09T13:49:35.061Z,25.13
2023-05-09T13:52:01.839Z,25.44
2023-05-09T13:54:31.372Z,25.05
2023-05-09T13:56:58.278Z,24.26
2023-05-09T13:59:25.017Z,23.43
2023-05-09T14:01:52.111Z,22.68
2023-05-09T14:04:19.158Z,22.22
2023-05-09T14:06:48.311Z,21.89
2023-05-09T14:09:15.766Z,21.52
2023-05-09T14:11:42.882Z,21.21
2023-05-09T14:14:09.628Z,21.01
2023-05-09T14:16:36.465Z,20.72
2023-05-09T14:19:03.293Z,20.48
2023-05-09T14:21:30.067Z,20.31
2023-05-09T14:23:57.513Z,20.11
2023-05-09T14:26:26.590Z,19.86
2023-05-09T14:28:54.310Z,19.62
2023-05-09T14:31:21.271Z,19.43
2023-05-09T14:33:48.109Z,19.33
2023-05-09T14:36:14.989Z,19.21
2023-05-09T14:38:43.073Z,19.11
2023-05-09T14:41:09.958Z,19.02
2023-05-09T14:43:36.983Z,18.90
2023-05-09T14:46:03.977Z,18.80
2023-05-09T14:48:30.868Z,18.64
2023-05-09T14:50:57.749Z,18.45
2023-05-09T14:53:24.689Z,18.26
2023-05-09T14:55:52.277Z,18.08
2023-05-09T14:58:19.510Z,17.92
2023-05-09T15:00:47.458Z,17.82
2023-05-09T15:03:14.652Z,17.76
2023-05-09T15:05:42.228Z,17.72
2023-05-09T15:08:09.085Z,17.64
2023-05-09T15:10:36.084Z,17.53
2023-05-09T15:13:05.796Z,17.44
2023-05-09T15:15:32.931Z,17.35
2023-05-09T15:18:01.035Z,17.29
2023-05-09T15:20:27.819Z,17.21
2023-05-09T15:22:54.641Z,17.16
2023-05-09T15:25:23.278Z,17.10
2023-05-09T15:27:51.130Z,17.08
2023-05-09T15:30:20.251Z,17.04
2023-05-09T15:32:47.212Z,16.99
2023-05-09T15:35:14.230Z,16.97
2023-05-09T15:37:41.163Z,16.94
2023-05-09T15:40:08.534Z,16.88
2023-05-09T15:42:35.936Z,16.82
2023-05-09T15:45:03.840Z,16.74
2023-05-09T15:47:31.076Z,16.70
2023-05-09T15:49:57.882Z,16.65
2023-05-09T15:52:24.720Z,16.63
2023-05-09T15:54:51.447Z,16.60
2023-05-09T15:57:18.210Z,16.57
2023-05-09T15:59:44.978Z,16.51
2023-05-09T16:04:39.011Z,16.38
2023-05-09T16:07:05.840Z,16.33
2023-05-09T16:09:32.985Z,16.27
2023-05-09T16:11:59.727Z,16.22
2023-05-09T16:14:26.618Z,16.18
2023-05-09T16:16:54.028Z,16.13
2023-05-09T16:19:21.873Z,16.08
2023-05-09T16:21:48.788Z,16.03
2023-05-09T16:24:15.559Z,15.97
2023-05-09T16:26:42.378Z,15.91
2023-05-09T16:29:10.013Z,15.85
2023-05-09T16:31:37.083Z,15.79
2023-05-09T16:34:04.033Z,15.73
2023-05-09T16:36:33.748Z,15.69
2023-05-09T16:39:02.789Z,15.65
2023-05-09T16:41:29.687Z,15.59
2023-05-09T16:43:57.498Z,15.50
2023-05-09T16:46:24.874Z,15.44
2023-05-09T16:48:52.705Z,15.39
2023-05-09T16:51:19.477Z,15.29
2023-05-09T16:53:46.349Z,15.26
2023-05-09T16:56:13.317Z,15.21
2023-05-09T16:58:40.156Z,15.16
2023-05-09T17:01:07.105Z,15.12
2023-05-09T17:03:34.318Z,15.06
2023-05-09T17:06:01.207Z,14.99
2023-05-09T17:08:27.962Z,14.92
2023-05-09T17:10:55.118Z,14.86
2023-05-09T17:13:22.100Z,14.80
2023-05-09T17:15:49.402Z,14.73
2023-05-09T17:18:22.177Z,14.64
2023-05-09T17:20:56.831Z,14.59
2023-05-09T17:23:24.484Z,14.53
2023-05-09T17:25:51.915Z,14.46
2023-05-09T17:28:18.625Z,14.39
2023-05-09T17:30:45.578Z,14.33
2023-05-09T17:33:12.354Z,14.27
2023-05-09T17:35:46.993Z,14.22
2023-05-09T17:38:14.165Z,14.15
2023-05-09T17:40:40.999Z,14.10
2023-05-09T17:43:07.726Z,14.02
2023-05-09T17:45:34.552Z,13.98
2023-05-09T17:48:02.339Z,13.92
2023-05-09T17:50:29.317Z,13.84
2023-05-09T17:52:57.069Z,13.77
2023-05-09T17:55:23.861Z,13.70
2023-05-09T17:57:50.767Z,13.63
2023-05-09T18:00:18.478Z,13.57
2023-05-09T18:02:48.278Z,13.49
2023-05-09T18:05:16.392Z,13.41
2023-05-09T18:07:43.214Z,13.33
2023-05-09T18:10:13.701Z,13.27
2023-05-09T18:12:41.002Z,13.19
2023-05-09T18:15:09.401Z,13.12
2023-05-09T18:17:36.910Z,13.04
2023-05-09T18:20:08.415Z,12.97
2023-05-09T18:22:38.646Z,12.87
2023-05-09T18:25:07.738Z,12.79
2023-05-09T18:27:35.257Z,12.69
2023-05-09T18:30:02.143Z,12.60
2023-05-09T18:32:29.987Z,12.50
2023-05-09T18:35:12.577Z,12.38
2023-05-09T18:37:39.957Z,12.28
2023-05-09T18:40:10.971Z,12.18
2023-05-09T18:42:39.380Z,12.07
2023-05-09T18:45:12.327Z,11.97
2023-05-09T18:47:39.647Z,11.83
2023-05-09T18:50:07.413Z,11.73
2023-05-09T18:52:35.583Z,11.62
2023-05-09T18:55:04.128Z,11.51
2023-05-09T18:57:31.089Z,11.40
2023-05-09T18:59:58.219Z,11.30
2023-05-09T19:02:26.555Z,11.21
2023-05-09T19:04:53.782Z,11.11
2023-05-09T19:07:23.926Z,11.02
2023-05-09T19:09:50.694Z,10.94
2023-05-09T19:12:17.794Z,10.86
2023-05-09T19:14:44.587Z,10.77
2023-05-09T19:17:12.059Z,10.70
2023-05-09T19:19:39.455Z,10.60
2023-05-09T19:22:07.490Z,10.53
2023-05-09T19:24:38.789Z,10.45
2023-05-09T19:27:07.696Z,10.36
2023-05-09T19:29:35.980Z,10.29
2023-05-09T19:32:04.123Z,10.21
2023-05-09T19:34:31.026Z,10.13
2023-05-09T19:36:57.800Z,10.07
2023-05-09T19:39:25.680Z,9.99
2023-05-09T19:41:52.517Z,9.90
2023-05-09T19:44:19.288Z,9.81
2023-05-09T19:46:46.249Z,9.71
2023-05-09T19:52:04.156Z,9.45
2023-05-09T19:54:31.181Z,9.33
2023-05-09T19:56:58.107Z,9.24
2023-05-09T19:59:24.910Z,9.13
2023-05-09T20:01:51.909Z,9.03
2023-05-09T20:04:21.830Z,8.94
2023-05-09T20:06:48.766Z,8.84
2023-05-09T20:09:18.001Z,8.77
2023-05-09T20:11:44.740Z,8.69
2023-05-09T20:14:11.572Z,8.65
2023-05-09T20:16:38.432Z,8.62
2023-05-09T20:19:08.004Z,8.58
2023-05-09T20:21:35.527Z,8.58
2023-05-09T20:24:03.494Z,8.59
2023-05-09T20:26:31.788Z,8.57
2023-05-09T20:29:01.659Z,8.57
2023-05-09T20:31:29.366Z,8.63
2023-05-09T20:33:57.974Z,8.71
2023-05-09T20:36:26.274Z,8.77
2023-05-09T20:38:53.150Z,8.81
2023-05-09T20:41:22.006Z,8.85
2023-05-09T20:43:50.187Z,8.92
2023-05-09T20:46:17.576Z,8.99
2023-05-09T20:48:44.479Z,9.05
2023-05-09T20:51:11.222Z,9.11
2023-05-09T20:53:38.004Z,9.18
2023-05-09T20:56:05.088Z,9.24
2023-05-09T20:58:33.997Z,9.32
2023-05-09T21:01:00.952Z,9.37
2023-05-09T21:03:27.969Z,9.41
2023-05-09T21:05:54.912Z,9.42
2023-05-09T21:08:23.330Z,9.45
2023-05-09T21:10:52.564Z,9.49
2023-05-09T21:13:19.571Z,9.54
2023-05-09T21:15:49.124Z,9.55
2023-05-09T21:18:15.960Z,9.58
2023-05-09T21:20:42.815Z,9.60
2023-05-09T21:23:09.652Z,9.60
2023-05-09T21:25:36.470Z,9.61
2023-05-09T21:28:03.390Z,9.61
2023-05-09T21:30:30.349Z,9.60
2023-05-09T21:32:57.118Z,9.58
2023-05-09T21:35:23.992Z,9.56
2023-05-09T21:37:52.718Z,9.56
2023-05-09T21:40:19.854Z,9.48
2023-05-09T21:42:47.882Z,9.53
2023-05-09T21:45:14.920Z,9.49
2023-05-09T21:47:41.821Z,9.44
2023-05-09T21:50:09.338Z,9.42
2023-05-09T21:52:36.165Z,9.38
2023-05-09T21:55:02.957Z,9.35
2023-05-09T21:57:29.842Z,9.34
2023-05-09T22:00:01.179Z,9.31
2023-05-09T22:02:29.876Z,9.31
2023-05-09T22:04:56.747Z,9.30
2023-05-09T22:07:23.596Z,9.27
2023-05-09T22:09:50.566Z,9.21
2023-05-09T22:12:17.386Z,9.14
2023-05-09T22:14:55.383Z,9.04
2023-05-09T22:17:24.325Z,8.94
2023-05-09T22:19:51.441Z,8.83
2023-05-09T22:22:18.235Z,8.72
2023-05-09T22:24:45.021Z,8.60
2023-05-09T22:27:11.926Z,8.48
2023-05-09T22:29:38.736Z,8.36
2023-05-09T22:32:07.801Z,8.22
2023-05-09T22:34:35.532Z,8.09
2023-05-09T22:37:02.339Z,7.94
2023-05-09T22:39:29.839Z,7.83
2023-05-09T22:41:56.821Z,7.69
2023-05-09T22:44:23.567Z,7.57
2023-05-09T22:46:50.418Z,7.48
2023-05-09T22:49:18.310Z,7.37
2023-05-09T22:51:45.180Z,7.25
2023-05-09T22:54:12.201Z,7.12
2023-05-09T22:56:39.006Z,7.03
2023-05-09T22:59:05.872Z,6.94
2023-05-09T23:01:32.740Z,6.84
2023-05-09T23:03:59.621Z,6.76
2023-05-09T23:06:26.351Z,6.71
2023-05-09T23:08:53.058Z,6.63
2023-05-09T23:11:21.041Z,6.57
2023-05-09T23:13:48.032Z,6.50
2023-05-09T23:16:16.246Z,6.42
2023-05-09T23:18:43.300Z,6.33
2023-05-09T23:21:10.034Z,6.21
2023-05-09T23:23:37.137Z,6.11
2023-05-09T23:26:03.938Z,6.01
2023-05-09T23:28:30.679Z,5.90
2023-05-09T23:30:57.415Z,5.81
2023-05-09T23:33:24.334Z,5.73
2023-05-09T23:35:51.203Z,5.66
2023-05-09T23:38:17.960Z,5.64
2023-05-09T23:40:46.148Z,5.61
2023-05-09T23:43:13.682Z,5.56
2023-05-09T23:45:40.559Z,5.51
2023-05-09T23:48:07.979Z,5.47
2023-05-09T23:50:34.776Z,5.41
2023-05-09T23:53:01.928Z,5.35
2023-05-09T23:55:29.197Z,5.27
2023-05-09T23:57:56.056Z,5.17
